createdAt,value
2023-08-08T00:01:21.341Z,2.58
2023-08-08T00:06:23.169Z,2.45
2023-08-08T00:11:24.931Z,3.72
2023-08-08T00:16:26.812Z,2.42
2023-08-08T00:21:28.583Z,2.65
2023-08-08T00:26:30.393Z,3.00
2023-08-08T00:31:32.190Z,3.10
2023-08-08T00:36:34.028Z,2.88
2023-08-08T00:41:35.773Z,2.63
2023-08-08T00:46:38.448Z,2.70
2023-08-08T00:51:40.333Z,2.80
2023-08-08T00:56:42.129Z,2.60
2023-08-08T01:01:44.050Z,2.70
2023-08-08T01:07:02.890Z,2.58
2023-08-08T01:12:07.047Z,2.45
2023-08-08T01:17:09.367Z,2.63
2023-08-08T01:22:23.372Z,2.67
2023-08-08T01:27:25.296Z,2.97
2023-08-08T01:32:27.151Z,2.88
2023-08-08T01:37:33.993Z,2.47
2023-08-08T01:42:35.875Z,2.97
2023-08-08T01:47:37.715Z,2.60
2023-08-08T01:52:39.522Z,2.63
2023-08-08T01:57:41.388Z,2.60
2023-08-08T02:02:43.293Z,2.95
2023-08-08T02:07:46.459Z,2.15
2023-08-08T02:12:48.266Z,2.65
2023-08-08T02:17:51.335Z,2.50
2023-08-08T02:22:53.188Z,2.50
2023-08-08T02:27:55.027Z,2.53
2023-08-08T02:32:56.907Z,2.42
2023-08-08T02:38:01.112Z,2.47
2023-08-08T02:43:02.923Z,3.20
2023-08-08T02:48:05.967Z,2.67
2023-08-08T02:53:08.156Z,3.08
2023-08-08T02:58:15.993Z,2.40
2023-08-08T03:03:18.018Z,2.90
2023-08-08T03:08:20.863Z,3.05
2023-08-08T03:13:23.619Z,2.45
2023-08-08T03:18:27.063Z,2.67
2023-08-08T03:23:29.499Z,3.15
2023-08-08T03:28:32.219Z,2.80
2023-08-08T03:33:34.500Z,2.50
2023-08-08T03:43:44.089Z,2.90
2023-08-08T03:48:45.994Z,2.92
2023-08-08T03:53:47.867Z,2.70
2023-08-08T03:58:49.762Z,2.70
2023-08-08T04:03:51.658Z,2.70
2023-08-08T04:08:53.561Z,3.17
2023-08-08T04:13:55.406Z,2.63
2023-08-08T04:18:57.337Z,2.90
2023-08-08T04:24:00.524Z,2.70
2023-08-08T04:29:02.299Z,2.50
2023-08-08T04:34:04.098Z,3.03
2023-08-08T04:39:06.042Z,2.50
2023-08-08T04:44:08.027Z,2.70
2023-08-08T04:49:09.882Z,2.95
2023-08-08T04:54:11.820Z,2.13
2023-08-08T04:59:13.839Z,1.95
2023-08-08T05:04:15.710Z,1.77
2023-08-08T05:09:17.624Z,1.80
2023-08-08T05:14:19.564Z,2.20
2023-08-08T05:19:21.472Z,2.13
2023-08-08T05:24:23.639Z,2.30
2023-08-08T05:29:25.435Z,1.85
2023-08-08T05:34:27.210Z,1.60
2023-08-08T05:39:29.026Z,1.40
2023-08-08T05:44:30.792Z,1.58
2023-08-08T05:49:32.628Z,1.67
2023-08-08T05:54:34.490Z,1.45
2023-08-08T05:59:36.620Z,1.50
2023-08-08T06:04:38.750Z,1.58
2023-08-08T06:09:40.628Z,1.95
2023-08-08T06:14:42.444Z,1.30
2023-08-08T06:19:44.471Z,1.38
2023-08-08T06:24:46.244Z,1.60
2023-08-08T06:29:48.082Z,1.45
2023-08-08T06:34:49.847Z,1.40
2023-08-08T06:39:51.883Z,1.60
2023-08-08T06:44:53.893Z,1.23
2023-08-08T06:49:55.661Z,1.20
2023-08-08T06:54:58.091Z,1.10
2023-08-08T06:59:59.944Z,1.35
2023-08-08T07:05:02.009Z,1.00
2023-08-08T07:10:06.582Z,1.13
2023-08-08T07:15:09.499Z,1.30
2023-08-08T07:20:14.870Z,1.20
2023-08-08T07:25:17.020Z,1.33
2023-08-08T07:30:19.193Z,1.00
2023-08-08T07:35:21.150Z,1.50
2023-08-08T07:40:23.175Z,1.00
2023-08-08T07:45:25.253Z,1.05
2023-08-08T07:50:27.174Z,0.98
2023-08-08T07:55:29.074Z,1.00
2023-08-08T08:00:31.643Z,0.80
2023-08-08T08:05:35.707Z,0.82
2023-08-08T08:10:37.531Z,0.90
2023-08-08T08:15:39.548Z,0.85
2023-08-08T08:20:41.351Z,0.80
2023-08-08T08:25:43.229Z,0.82
2023-08-08T08:30:45.120Z,0.80
2023-08-08T08:35:46.954Z,0.90
2023-08-08T08:40:49.888Z,0.60
2023-08-08T08:45:55.468Z,0.60
2023-08-08T08:50:58.669Z,0.90
2023-08-08T08:56:00.771Z,0.90
2023-08-08T09:01:03.143Z,0.80
2023-08-08T09:06:07.315Z,0.80
2023-08-08T09:11:09.840Z,1.10
2023-08-08T09:16:13.606Z,0.82
2023-08-08T09:21:16.883Z,0.80
2023-08-08T09:26:18.776Z,0.80
2023-08-08T09:31:20.720Z,1.20
2023-08-08T09:36:24.778Z,0.80
2023-08-08T09:41:27.324Z,0.77
2023-08-08T09:46:32.052Z,0.80
2023-08-08T09:51:34.844Z,0.80
2023-08-08T09:56:37.950Z,0.65
2023-08-08T10:01:43.188Z,0.80
2023-08-08T10:06:45.375Z,0.70
2023-08-08T10:11:48.609Z,0.75
2023-08-08T10:16:50.453Z,0.75
2023-08-08T10:22:00.473Z,0.70
2023-08-08T10:27:05.173Z,0.90
2023-08-08T10:32:08.591Z,0.60
2023-08-08T10:42:19.605Z,0.70
2023-08-08T10:47:37.796Z,0.70
2023-08-08T10:52:53.228Z,0.70
2023-08-08T10:58:00.082Z,0.80
2023-08-08T11:03:03.757Z,0.60
2023-08-08T11:08:07.187Z,0.73
2023-08-08T11:18:12.931Z,0.60
2023-08-08T11:23:16.105Z,0.80
2023-08-08T11:28:17.943Z,0.73
2023-08-08T11:33:19.870Z,0.90
2023-08-08T11:38:21.904Z,0.80
2023-08-08T11:43:23.882Z,0.70
2023-08-08T11:48:26.728Z,0.90
2023-08-08T11:53:28.549Z,0.85
2023-08-08T11:58:31.685Z,0.90
2023-08-08T12:03:33.674Z,0.75
2023-08-08T12:08:35.845Z,0.98
2023-08-08T12:13:45.281Z,0.82
2023-08-08T12:18:49.834Z,1.10
2023-08-08T12:23:51.795Z,0.90
2023-08-08T12:28:55.073Z,1.05
2023-08-08T12:33:56.863Z,1.00
2023-08-08T12:38:58.737Z,0.95
2023-08-08T12:44:00.564Z,0.90
2023-08-08T12:49:02.373Z,0.88
2023-08-08T12:54:04.453Z,0.82
2023-08-08T12:59:06.491Z,0.98
2023-08-08T13:04:19.478Z,0.80
2023-08-08T13:14:23.780Z,0.90
2023-08-08T13:19:26.191Z,1.20
2023-08-08T13:24:28.019Z,1.17
2023-08-08T13:29:29.899Z,0.80
2023-08-08T13:34:31.711Z,0.85
2023-08-08T13:39:33.483Z,0.73
2023-08-08T13:44:35.410Z,0.75
2023-08-08T13:49:37.234Z,1.00
2023-08-08T13:54:39.021Z,1.05
2023-08-08T13:59:40.769Z,1.02
2023-08-08T14:04:42.519Z,0.73
2023-08-08T14:09:44.319Z,0.90
2023-08-08T14:14:46.088Z,1.00
2023-08-08T14:19:48.099Z,1.00
2023-08-08T14:24:49.882Z,1.08
2023-08-08T14:29:51.819Z,0.95
2023-08-08T14:34:55.182Z,0.82
2023-08-08T14:39:58.149Z,1.35
2023-08-08T14:44:59.928Z,0.90
2023-08-08T14:50:01.778Z,0.93
2023-08-08T14:55:03.897Z,1.15
2023-08-08T15:00:07.784Z,0.85
2023-08-08T15:05:09.694Z,1.00
2023-08-08T15:10:12.347Z,1.08
2023-08-08T15:15:14.329Z,0.70
2023-08-08T15:20:16.323Z,0.90
2023-08-08T15:25:18.384Z,0.70
2023-08-08T15:30:20.417Z,1.25
2023-08-08T15:35:22.328Z,0.70
2023-08-08T15:40:24.130Z,1.00
2023-08-08T15:45:26.130Z,0.77
2023-08-08T15:50:27.942Z,0.90
2023-08-08T15:55:29.739Z,0.90
2023-08-08T16:00:31.648Z,0.75
2023-08-08T16:05:33.510Z,0.90
2023-08-08T16:10:35.439Z,1.00
2023-08-08T16:15:37.192Z,0.90
2023-08-08T16:20:39.019Z,0.65
2023-08-08T16:25:40.799Z,0.90
2023-08-08T16:30:42.607Z,1.27
2023-08-08T16:35:44.937Z,0.85
2023-08-08T16:40:46.980Z,0.90
2023-08-08T16:45:48.817Z,0.93
2023-08-08T16:50:51.187Z,1.00
2023-08-08T16:55:52.932Z,0.90
2023-08-08T17:00:55.315Z,1.15
2023-08-08T17:05:57.220Z,4.20
2023-08-08T17:10:58.990Z,0.93
2023-08-08T17:16:00.769Z,0.98
2023-08-08T17:21:02.687Z,1.40
2023-08-08T17:26:04.812Z,0.90
2023-08-08T17:31:06.907Z,0.63
2023-08-08T17:36:08.772Z,0.95
2023-08-08T17:41:10.702Z,0.95
2023-08-08T17:46:12.682Z,0.98
2023-08-08T17:51:14.581Z,1.20
2023-08-08T17:56:16.452Z,1.20
2023-08-08T18:01:18.428Z,1.13
2023-08-08T18:06:20.265Z,1.10
2023-08-08T18:11:22.062Z,0.90
2023-08-08T18:16:23.917Z,0.90
2023-08-08T18:21:26.863Z,0.98
2023-08-08T18:26:28.671Z,1.42
2023-08-08T18:31:30.609Z,1.30
2023-08-08T18:36:34.404Z,1.50
2023-08-08T18:41:36.832Z,1.00
2023-08-08T18:46:38.760Z,0.80
2023-08-08T18:51:40.550Z,1.20
2023-08-08T18:56:42.349Z,1.15
2023-08-08T19:01:44.196Z,0.80
2023-08-08T19:06:45.981Z,1.08
2023-08-08T19:11:47.805Z,1.27
2023-08-08T19:16:49.631Z,0.85
2023-08-08T19:21:51.481Z,1.08
2023-08-08T19:26:53.314Z,0.90
2023-08-08T19:31:55.107Z,0.90
2023-08-08T19:36:56.874Z,0.80
2023-08-08T19:41:59.213Z,1.10
2023-08-08T19:47:01.657Z,0.90
2023-08-08T19:52:03.946Z,0.90
2023-08-08T19:57:05.869Z,1.13
2023-08-08T20:02:08.475Z,1.20
2023-08-08T20:07:10.424Z,1.23
2023-08-08T20:12:12.604Z,1.25
2023-08-08T20:17:14.527Z,1.25
2023-08-08T20:22:16.330Z,1.50
2023-08-08T20:27:18.197Z,1.30
2023-08-08T20:32:20.141Z,1.25
2023-08-08T20:37:22.013Z,1.50
2023-08-08T20:42:23.819Z,1.40
2023-08-08T20:47:25.605Z,1.20
2023-08-08T20:52:27.418Z,1.23
2023-08-08T20:57:29.397Z,1.13
2023-08-08T21:02:31.180Z,1.30
2023-08-08T21:07:36.291Z,1.20
2023-08-08T21:12:38.049Z,1.75
2023-08-08T21:17:44.204Z,1.70
2023-08-08T21:22:46.545Z,1.27
2023-08-08T21:27:48.318Z,1.20
2023-08-08T21:32:50.109Z,1.30
2023-08-08T21:37:51.885Z,1.17
2023-08-08T21:42:53.632Z,1.40
2023-08-08T21:47:57.376Z,1.30
2023-08-08T21:53:00.540Z,1.48
2023-08-08T21:58:03.144Z,1.35
2023-08-08T22:03:05.112Z,1.48
2023-08-08T22:08:07.037Z,1.50
2023-08-08T22:13:10.864Z,1.70
2023-08-08T22:18:15.364Z,1.58
2023-08-08T22:23:21.093Z,1.50
2023-08-08T22:28:23.412Z,1.50
2023-08-08T22:33:25.432Z,1.52
2023-08-08T22:38:27.267Z,1.70
2023-08-08T22:43:29.032Z,1.48
2023-08-08T22:48:30.813Z,1.77
2023-08-08T22:53:32.619Z,2.00
2023-08-08T22:58:34.470Z,1.90
2023-08-08T23:03:37.665Z,1.70
2023-08-08T23:08:39.511Z,1.70
2023-08-08T23:13:41.395Z,2.30
2023-08-08T23:18:44.286Z,1.73
2023-08-08T23:23:46.297Z,2.00
2023-08-08T23:28:48.112Z,2.17
2023-08-08T23:33:50.061Z,1.98
2023-08-08T23:38:52.217Z,2.58
2023-08-08T23:43:54.012Z,2.42
2023-08-08T23:48:55.779Z,2.63
2023-08-08T23:53:57.555Z,3.15
2023-08-08T23:58:59.352Z,3.15
